sensor_id;sensor_type;location;lat;lon;timestamp;pressure;altitude;pressure_sealevel;temperature;humidity
39265;BME280;42646;51.910;7.724;2023-02-18T00:01:33;101486.28;;;9.22;100.00
39265;BME280;42646;51.910;7.724;2023-02-18T00:04:01;101478.31;;;9.22;100.00
39265;BME280;42646;51.910;7.724;2023-02-18T00:06:31;101483.63;;;9.22;100.00
39265;BME280;42646;51.910;7.724;2023-02-18T00:09:03;101473.00;;;9.22;100.00
39265;BME280;42646;51.910;7.724;2023-02-18T00:11:34;101480.13;;;9.22;100.00
39265;BME280;42646;51.910;7.724;2023-02-18T00:14:05;101485.44;;;9.22;100.00
39265;BME280;42646;51.910;7.724;2023-02-18T00:16:34;101473.84;;;9.23;100.00
39265;BME280;42646;51.910;7.724;2023-02-18T00:19:07;101479.81;;;9.26;100.00
39265;BME280;42646;51.910;7.724;2023-02-18T00:21:37;101464.84;;;9.25;100.00
39265;BME280;42646;51.910;7.724;2023-02-18T00:24:07;101475.34;;;9.27;100.00
39265;BME280;42646;51.910;7.724;2023-02-18T00:26:36;101472.56;;;9.28;100.00
39265;BME280;42646;51.910;7.724;2023-02-18T00:29:04;101465.34;;;9.30;100.00
39265;BME280;42646;51.910;7.724;2023-02-18T00:31:34;101469.72;;;9.31;100.00
39265;BME280;42646;51.910;7.724;2023-02-18T00:34:03;101462.59;;;9.32;100.00
39265;BME280;42646;51.910;7.724;2023-02-18T00:36:31;101463.44;;;9.32;100.00
39265;BME280;42646;51.910;7.724;2023-02-18T00:39:00;101449.19;;;9.33;100.00
39265;BME280;42646;51.910;7.724;2023-02-18T00:41:31;101441.97;;;9.35;100.00
39265;BME280;42646;51.910;7.724;2023-02-18T00:44:01;101438.97;;;9.40;100.00
39265;BME280;42646;51.910;7.724;2023-02-18T00:46:29;101441.63;;;9.40;100.00
39265;BME280;42646;51.910;7.724;2023-02-18T00:48:59;101434.38;;;9.42;100.00
39265;BME280;42646;51.910;7.724;2023-02-18T00:51:27;101439.63;;;9.44;100.00
39265;BME280;42646;51.910;7.724;2023-02-18T00:53:58;101444.81;;;9.45;100.00
39265;BME280;42646;51.910;7.724;2023-02-18T00:56:26;101433.00;;;9.49;100.00
39265;BME280;42646;51.910;7.724;2023-02-18T00:58:56;101439.03;;;9.51;100.00
39265;BME280;42646;51.910;7.724;2023-02-18T01:01:23;101430.38;;;9.60;100.00
39265;BME280;42646;51.910;7.724;2023-02-18T01:03:51;101424.97;;;9.62;100.00
39265;BME280;42646;51.910;7.724;2023-02-18T01:06:19;101425.72;;;9.64;100.00
39265;BME280;42646;51.910;7.724;2023-02-18T01:08:48;101429.00;;;9.68;100.00
39265;BME280;42646;51.910;7.724;2023-02-18T01:11:16;101429.09;;;9.66;100.00
39265;BME280;42646;51.910;7.724;2023-02-18T01:13:44;101424.19;;;9.73;100.00
39265;BME280;42646;51.910;7.724;2023-02-18T01:16:15;101432.03;;;9.74;100.00
39265;BME280;42646;51.910;7.724;2023-02-18T01:18:45;101420.56;;;9.74;100.00
39265;BME280;42646;51.910;7.724;2023-02-18T01:21:13;101423.94;;;9.76;100.00
39265;BME280;42646;51.910;7.724;2023-02-18T01:23:41;101427.31;;;9.78;100.00
39265;BME280;42646;51.910;7.724;2023-02-18T01:26:10;101430.63;;;9.81;100.00
39265;BME280;42646;51.910;7.724;2023-02-18T01:28:38;101426.88;;;9.84;100.00
39265;BME280;42646;51.910;7.724;2023-02-18T01:31:10;101418.81;;;9.85;100.00
39265;BME280;42646;51.910;7.724;2023-02-18T01:33:40;101408.06;;;9.87;100.00
39265;BME280;42646;51.910;7.724;2023-02-18T01:36:09;101420.25;;;9.89;100.00
39265;BME280;42646;51.910;7.724;2023-02-18T01:38:38;101419.31;;;9.90;100.00
39265;BME280;42646;51.910;7.724;2023-02-18T01:41:07;101415.69;;;9.92;100.00
39265;BME280;42646;51.910;7.724;2023-02-18T01:43:35;101412.78;;;9.95;100.00
39265;BME280;42646;51.910;7.724;2023-02-18T01:46:10;101409.91;;;9.98;100.00
39265;BME280;42646;51.910;7.724;2023-02-18T01:48:48;101407.84;;;10.01;100.00
39265;BME280;42646;51.910;7.724;2023-02-18T01:51:22;101402.44;;;10.03;100.00
39265;BME280;42646;51.910;7.724;2023-02-18T01:53:54;101401.59;;;10.02;100.00
39265;BME280;42646;51.910;7.724;2023-02-18T01:56:27;101392.53;;;10.05;100.00
39265;BME280;42646;51.910;7.724;2023-02-18T01:59:00;101398.06;;;10.02;100.00
39265;BME280;42646;51.910;7.724;2023-02-18T02:01:30;101397.59;;;10.08;100.00
39265;BME280;42646;51.910;7.724;2023-02-18T02:04:02;101390.59;;;10.07;100.00
39265;BME280;42646;51.910;7.724;2023-02-18T02:06:29;101394.84;;;10.09;100.00
39265;BME280;42646;51.910;7.724;2023-02-18T02:09:04;101386.88;;;10.09;100.00
39265;BME280;42646;51.910;7.724;2023-02-18T02:11:41;101393.53;;;10.15;100.00
39265;BME280;42646;51.910;7.724;2023-02-18T02:14:21;101380.81;;;10.18;100.00
39265;BME280;42646;51.910;7.724;2023-02-18T02:16:59;101378.06;;;10.20;100.00
39265;BME280;42646;51.910;7.724;2023-02-18T02:23:04;101360.44;;;10.30;100.00
39265;BME280;42646;51.910;7.724;2023-02-18T02:26:01;101368.16;;;10.22;100.00
39265;BME280;42646;51.910;7.724;2023-02-18T02:28:51;101364.88;;;10.18;100.00
39265;BME280;42646;51.910;7.724;2023-02-18T02:34:53;101360.09;;;10.24;100.00
39265;BME280;42646;51.910;7.724;2023-02-18T02:37:27;101347.84;;;10.21;100.00
39265;BME280;42646;51.910;7.724;2023-02-18T02:40:08;101346.88;;;10.22;100.00
39265;BME280;42646;51.910;7.724;2023-02-18T02:42:45;101334.34;;;10.24;100.00
39265;BME280;42646;51.910;7.724;2023-02-18T02:45:23;101338.59;;;10.27;100.00
39265;BME280;42646;51.910;7.724;2023-02-18T02:48:03;101333.25;;;10.27;100.00
39265;BME280;42646;51.910;7.724;2023-02-18T02:50:43;101330.81;;;10.24;100.00
39265;BME280;42646;51.910;7.724;2023-02-18T02:53:16;101323.69;;;10.24;100.00
39265;BME280;42646;51.910;7.724;2023-02-18T02:55:45;101322.22;;;10.20;100.00
39265;BME280;42646;51.910;7.724;2023-02-18T02:58:17;101312.44;;;10.21;100.00
39265;BME280;42646;51.910;7.724;2023-02-18T03:00:55;101306.28;;;10.20;100.00
39265;BME280;42646;51.910;7.724;2023-02-18T03:03:50;101304.34;;;10.22;100.00
39265;BME280;42646;51.910;7.724;2023-02-18T03:06:57;101293.38;;;10.27;100.00
39265;BME280;42646;51.910;7.724;2023-02-18T03:09:39;101280.19;;;10.25;100.00
39265;BME280;42646;51.910;7.724;2023-02-18T03:12:15;101271.47;;;10.23;100.00
39265;BME280;42646;51.910;7.724;2023-02-18T03:14:55;101269.53;;;10.25;100.00
39265;BME280;42646;51.910;7.724;2023-02-18T03:17:27;101270.28;;;10.27;100.00
39265;BME280;42646;51.910;7.724;2023-02-18T03:20:02;101264.97;;;10.27;100.00
39265;BME280;42646;51.910;7.724;2023-02-18T03:22:38;101261.56;;;10.25;100.00
39265;BME280;42646;51.910;7.724;2023-02-18T03:25:07;101252.50;;;10.28;100.00
39265;BME280;42646;51.910;7.724;2023-02-18T03:27:42;101251.41;;;10.30;100.00
39265;BME280;42646;51.910;7.724;2023-02-18T03:30:16;101246.09;;;10.30;100.00
39265;BME280;42646;51.910;7.724;2023-02-18T03:32:48;101231.38;;;10.26;100.00
39265;BME280;42646;51.910;7.724;2023-02-18T03:35:19;101233.06;;;10.27;100.00
39265;BME280;42646;51.910;7.724;2023-02-18T03:37:58;101233.53;;;10.32;100.00
39265;BME280;42646;51.910;7.724;2023-02-18T03:40:29;101229.91;;;10.33;100.00
39265;BME280;42646;51.910;7.724;2023-02-18T03:43:01;101225.44;;;10.34;100.00
39265;BME280;42646;51.910;7.724;2023-02-18T03:45:28;101230.75;;;10.34;100.00
39265;BME280;42646;51.910;7.724;2023-02-18T03:47:59;101213.81;;;10.35;100.00
39265;BME280;42646;51.910;7.724;2023-02-18T03:50:26;101211.78;;;10.38;100.00
39265;BME280;42646;51.910;7.724;2023-02-18T03:52:56;101204.72;;;10.37;100.00
39265;BME280;42646;51.910;7.724;2023-02-18T03:55:26;101205.84;;;10.35;100.00
39265;BME280;42646;51.910;7.724;2023-02-18T03:57:54;101203.19;;;10.35;100.00
39265;BME280;42646;51.910;7.724;2023-02-18T04:00:22;101195.19;;;10.35;100.00
39265;BME280;42646;51.910;7.724;2023-02-18T04:02:51;101198.69;;;10.35;100.00
39265;BME280;42646;51.910;7.724;2023-02-18T04:05:19;101191.56;;;10.36;100.00
39265;BME280;42646;51.910;7.724;2023-02-18T04:07:47;101194.69;;;10.41;100.00
39265;BME280;42646;51.910;7.724;2023-02-18T04:10:16;101188.69;;;10.39;100.00
39265;BME280;42646;51.910;7.724;2023-02-18T04:12:45;101182.38;;;10.40;100.00
39265;BME280;42646;51.910;7.724;2023-02-18T04:15:13;101183.09;;;10.42;100.00
39265;BME280;42646;51.910;7.724;2023-02-18T04:17:41;101178.03;;;10.39;100.00
39265;BME280;42646;51.910;7.724;2023-02-18T04:20:09;101171.59;;;10.41;100.00
39265;BME280;42646;51.910;7.724;2023-02-18T04:22:38;101178.97;;;10.49;100.00
39265;BME280;42646;51.910;7.724;2023-02-18T04:25:06;101174.03;;;10.45;100.00
39265;BME280;42646;51.910;7.724;2023-02-18T04:27:39;101169.78;;;10.42;100.00
39265;BME280;42646;51.910;7.724;2023-02-18T04:30:07;101171.25;;;10.46;100.00
39265;BME280;42646;51.910;7.724;2023-02-18T04:32:36;101164.94;;;10.47;100.00
39265;BME280;42646;51.910;7.724;2023-02-18T04:35:04;101161.31;;;10.48;100.00
39265;BME280;42646;51.910;7.724;2023-02-18T04:37:32;101149.34;;;10.42;100.00
39265;BME280;42646;51.910;7.724;2023-02-18T04:40:00;101160.56;;;10.57;100.00
39265;BME280;42646;51.910;7.724;2023-02-18T04:42:29;101161.56;;;10.56;100.00
39265;BME280;42646;51.910;7.724;2023-02-18T04:44:58;101141.97;;;10.46;100.00
39265;BME280;42646;51.910;7.724;2023-02-18T04:47:27;101148.28;;;10.45;100.00
39265;BME280;42646;51.910;7.724;2023-02-18T04:49:55;101144.63;;;10.46;100.00
39265;BME280;42646;51.910;7.724;2023-02-18T04:52:23;101141.28;;;10.44;100.00
39265;BME280;42646;51.910;7.724;2023-02-18T04:54:56;101135.69;;;10.47;100.00
39265;BME280;42646;51.910;7.724;2023-02-18T04:57:23;101137.78;;;10.43;100.00
39265;BME280;42646;51.910;7.724;2023-02-18T04:59:53;101141.63;;;10.51;100.00
39265;BME280;42646;51.910;7.724;2023-02-18T05:02:49;101134.84;;;10.47;100.00
39265;BME280;42646;51.910;7.724;2023-02-18T05:05:16;101128.31;;;10.51;100.00
39265;BME280;42646;51.910;7.724;2023-02-18T05:07:46;101127.47;;;10.50;100.00
39265;BME280;42646;51.910;7.724;2023-02-18T05:10:15;101127.47;;;10.50;100.00
39265;BME280;42646;51.910;7.724;2023-02-18T05:13:07;101136.28;;;10.51;100.00
39265;BME280;42646;51.910;7.724;2023-02-18T05:15:35;101128.19;;;10.52;100.00
39265;BME280;42646;51.910;7.724;2023-02-18T05:18:05;101115.38;;;10.46;100.00
39265;BME280;42646;51.910;7.724;2023-02-18T05:20:33;101099.16;;;10.49;100.00
39265;BME280;42646;51.910;7.724;2023-02-18T05:23:02;101107.13;;;10.49;100.00
39265;BME280;42646;51.910;7.724;2023-02-18T05:25:30;101099.88;;;10.51;100.00
39265;BME280;42646;51.910;7.724;2023-02-18T05:28:22;101094.19;;;10.56;100.00
39265;BME280;42646;51.910;7.724;2023-02-18T05:30:52;101090.81;;;10.54;100.00
39265;BME280;42646;51.910;7.724;2023-02-18T05:33:24;101074.22;;;10.61;100.00
39265;BME280;42646;51.910;7.724;2023-02-18T05:35:52;101059.72;;;10.54;100.00
39265;BME280;42646;51.910;7.724;2023-02-18T05:38:20;101061.06;;;10.49;100.00
39265;BME280;42646;51.910;7.724;2023-02-18T05:40:47;101068.09;;;10.50;100.00
39265;BME280;42646;51.910;7.724;2023-02-18T05:43:20;101059.16;;;10.51;100.00
39265;BME280;42646;51.910;7.724;2023-02-18T05:45:47;101054.81;;;10.50;100.00
39265;BME280;42646;51.910;7.724;2023-02-18T05:48:16;101057.47;;;10.50;100.00
39265;BME280;42646;51.910;7.724;2023-02-18T05:50:45;101059.25;;;10.49;100.00
39265;BME280;42646;51.910;7.724;2023-02-18T05:53:13;101050.06;;;10.53;100.00
39265;BME280;42646;51.910;7.724;2023-02-18T05:55:45;101045.84;;;10.51;100.00
39265;BME280;42646;51.910;7.724;2023-02-18T05:58:12;101038.84;;;10.50;100.00
39265;BME280;42646;51.910;7.724;2023-02-18T06:00:43;101038.44;;;10.54;100.00
39265;BME280;42646;51.910;7.724;2023-02-18T06:03:11;101042.59;;;10.47;100.00
39265;BME280;42646;51.910;7.724;2023-02-18T06:05:38;101036.63;;;10.55;100.00
39265;BME280;42646;51.910;7.724;2023-02-18T06:08:35;101026.94;;;10.54;100.00
39265;BME280;42646;51.910;7.724;2023-02-18T06:11:04;101021.38;;;10.57;100.00
39265;BME280;42646;51.910;7.724;2023-02-18T06:13:33;101026.94;;;10.54;100.00
39265;BME280;42646;51.910;7.724;2023-02-18T06:16:00;101024.44;;;10.52;100.00
39265;BME280;42646;51.910;7.724;2023-02-18T06:18:53;101023.06;;;10.58;100.00
39265;BME280;42646;51.910;7.724;2023-02-18T06:21:46;101025.78;;;10.47;100.00
39265;BME280;42646;51.910;7.724;2023-02-18T06:24:17;101024.44;;;10.52;100.00
39265;BME280;42646;51.910;7.724;2023-02-18T06:26:45;101027.34;;;10.49;100.00
39265;BME280;42646;51.910;7.724;2023-02-18T06:29:13;101036.19;;;10.50;100.00
39265;BME280;42646;51.910;7.724;2023-02-18T06:31:40;101029.38;;;10.57;100.00
39265;BME280;42646;51.910;7.724;2023-02-18T06:34:09;101019.63;;;10.46;100.00
39265;BME280;42646;51.910;7.724;2023-02-18T06:36:37;101018.66;;;10.47;100.00
39265;BME280;42646;51.910;7.724;2023-02-18T06:39:05;101024.28;;;10.54;100.00
39265;BME280;42646;51.910;7.724;2023-02-18T06:41:34;101017.28;;;10.53;100.00
39265;BME280;42646;51.910;7.724;2023-02-18T06:44:03;101020.22;;;10.50;100.00
39265;BME280;42646;51.910;7.724;2023-02-18T06:46:31;101014.53;;;10.43;100.00
39265;BME280;42646;51.910;7.724;2023-02-18T06:48:59;101024.94;;;10.46;100.00
39265;BME280;42646;51.910;7.724;2023-02-18T06:51:27;100998.94;;;10.50;100.00
39265;BME280;42646;51.910;7.724;2023-02-18T06:53:54;101010.66;;;10.47;100.00
39265;BME280;42646;51.910;7.724;2023-02-18T06:56:22;101011.13;;;10.52;100.00
39265;BME280;42646;51.910;7.724;2023-02-18T06:58:52;101014.63;;;10.53;100.00
39265;BME280;42646;51.910;7.724;2023-02-18T07:01:20;101013.66;;;10.54;100.00
39265;BME280;42646;51.910;7.724;2023-02-18T07:03:48;101017.16;;;10.54;100.00
39265;BME280;42646;51.910;7.724;2023-02-18T07:06:16;101008.38;;;10.42;100.00
39265;BME280;42646;51.910;7.724;2023-02-18T07:08:44;101007.53;;;10.42;100.00
39265;BME280;42646;51.910;7.724;2023-02-18T07:11:11;101004.00;;;10.53;100.00
39265;BME280;42646;51.910;7.724;2023-02-18T07:13:40;101001.31;;;10.53;100.00
39265;BME280;42646;51.910;7.724;2023-02-18T07:16:09;101003.91;;;10.43;100.00
39265;BME280;42646;51.910;7.724;2023-02-18T07:18:37;101006.47;;;10.45;100.00
39265;BME280;42646;51.910;7.724;2023-02-18T07:21:05;101003.00;;;10.54;100.00
39265;BME280;42646;51.910;7.724;2023-02-18T07:23:33;101006.00;;;10.39;100.00
39265;BME280;42646;51.910;7.724;2023-02-18T07:26:05;101004.88;;;10.42;100.00
39265;BME280;42646;51.910;7.724;2023-02-18T07:28:34;101003.19;;;10.41;100.00
39265;BME280;42646;51.910;7.724;2023-02-18T07:31:03;101009.50;;;10.40;100.00
39265;BME280;42646;51.910;7.724;2023-02-18T07:33:33;100999.31;;;10.45;100.00
39265;BME280;42646;51.910;7.724;2023-02-18T07:36:03;100985.03;;;10.46;100.00
39265;BME280;42646;51.910;7.724;2023-02-18T07:38:33;100991.66;;;10.52;100.00
39265;BME280;42646;51.910;7.724;2023-02-18T07:41:05;100999.81;;;10.60;100.00
39265;BME280;42646;51.910;7.724;2023-02-18T07:43:33;101011.25;;;10.51;100.00
39265;BME280;42646;51.910;7.724;2023-02-18T07:46:04;100990.75;;;10.41;100.00
39265;BME280;42646;51.910;7.724;2023-02-18T07:48:35;100995.41;;;10.49;100.00
39265;BME280;42646;51.910;7.724;2023-02-18T07:51:04;101003.91;;;10.43;100.00
39265;BME280;42646;51.910;7.724;2023-02-18T07:53:33;101003.16;;;10.52;100.00
39265;BME280;42646;51.910;7.724;2023-02-18T07:56:03;101001.97;;;10.45;100.00
39265;BME280;42646;51.910;7.724;2023-02-18T07:58:34;101013.19;;;10.49;100.00
39265;BME280;42646;51.910;7.724;2023-02-18T08:01:04;101000.50;;;10.52;100.00
39265;BME280;42646;51.910;7.724;2023-02-18T08:03:32;101012.09;;;10.51;100.00
39265;BME280;42646;51.910;7.724;2023-02-18T08:06:03;101005.09;;;10.50;100.00
39265;BME280;42646;51.910;7.724;2023-02-18T08:08:33;101006.66;;;10.53;100.00
39265;BME280;42646;51.910;7.724;2023-02-18T08:11:50;101017.66;;;10.48;100.00
39265;BME280;42646;51.910;7.724;2023-02-18T08:14:18;101014.13;;;10.59;100.00
39265;BME280;42646;51.910;7.724;2023-02-18T08:16:54;101002.56;;;10.49;100.00
39265;BME280;42646;51.910;7.724;2023-02-18T08:19:23;101007.75;;;10.50;100.00
39265;BME280;42646;51.910;7.724;2023-02-18T08:21:53;101005.72;;;10.42;100.00
39265;BME280;42646;51.910;7.724;2023-02-18T08:24:21;101003.16;;;10.52;100.00
39265;BME280;42646;51.910;7.724;2023-02-18T08:26:49;101023.44;;;10.53;100.00
39265;BME280;42646;51.910;7.724;2023-02-18T08:29:28;101023.13;;;10.47;100.00
39265;BME280;42646;51.910;7.724;2023-02-18T08:32:01;101018.28;;;10.52;100.00
39265;BME280;42646;51.910;7.724;2023-02-18T08:34:28;101023.31;;;10.55;100.00
39265;BME280;42646;51.910;7.724;2023-02-18T08:36:57;101026.09;;;10.53;100.00
39265;BME280;42646;51.910;7.724;2023-02-18T08:39:26;101015.41;;;10.43;100.00
39265;BME280;42646;51.910;7.724;2023-02-18T08:42:04;101014.75;;;10.51;100.00
39265;BME280;42646;51.910;7.724;2023-02-18T08:44:33;101011.38;;;10.49;100.00
39265;BME280;42646;51.910;7.724;2023-02-18T08:47:02;101009.13;;;10.45;100.00
39265;BME280;42646;51.910;7.724;2023-02-18T08:49:51;101018.13;;;10.53;100.00
39265;BME280;42646;51.910;7.724;2023-02-18T08:52:23;100998.44;;;10.56;100.00
39265;BME280;42646;51.910;7.724;2023-02-18T08:54:51;100984.16;;;10.57;100.00
39265;BME280;42646;51.910;7.724;2023-02-18T08:57:19;100983.22;;;10.47;100.00
39265;BME280;42646;51.910;7.724;2023-02-18T08:59:46;100982.00;;;10.51;100.00
39265;BME280;42646;51.910;7.724;2023-02-18T09:02:14;100984.97;;;10.57;100.00
39265;BME280;42646;51.910;7.724;2023-02-18T09:04:47;100976.47;;;10.42;100.00
39265;BME280;42646;51.910;7.724;2023-02-18T09:07:18;100978.56;;;10.39;100.00
39265;BME280;42646;51.910;7.724;2023-02-18T09:09:47;100988.81;;;10.43;100.00
39265;BME280;42646;51.910;7.724;2023-02-18T09:12:15;100998.25;;;10.36;100.00
39265;BME280;42646;51.910;7.724;2023-02-18T09:14:42;100998.84;;;10.40;100.00
39265;BME280;42646;51.910;7.724;2023-02-18T09:17:11;100994.63;;;10.37;100.00
39265;BME280;42646;51.910;7.724;2023-02-18T09:19:38;100985.38;;;10.53;100.00
39265;BME280;42646;51.910;7.724;2023-02-18T09:22:08;101003.72;;;10.35;100.00
39265;BME280;42646;51.910;7.724;2023-02-18T09:24:36;100993.91;;;10.35;100.00
39265;BME280;42646;51.910;7.724;2023-02-18T09:27:06;100985.09;;;10.35;100.00
39265;BME280;42646;51.910;7.724;2023-02-18T09:29:38;100992.69;;;10.39;100.00
39265;BME280;42646;51.910;7.724;2023-02-18T09:32:08;101002.28;;;10.31;100.00
39265;BME280;42646;51.910;7.724;2023-02-18T09:34:41;100999.63;;;10.31;100.00
39265;BME280;42646;51.910;7.724;2023-02-18T09:37:10;101002.69;;;10.26;100.00
39265;BME280;42646;51.910;7.724;2023-02-18T09:39:41;101000.13;;;10.25;100.00
39265;BME280;42646;51.910;7.724;2023-02-18T09:42:36;100997.72;;;10.22;100.00
39265;BME280;42646;51.910;7.724;2023-02-18T09:45:06;100996.97;;;10.20;100.00
39265;BME280;42646;51.910;7.724;2023-02-18T09:47:40;101005.97;;;10.07;100.00
39265;BME280;42646;51.910;7.724;2023-02-18T09:50:13;101003.91;;;10.11;100.00
39265;BME280;42646;51.910;7.724;2023-02-18T09:52:45;101002.72;;;10.04;100.00
39265;BME280;42646;51.910;7.724;2023-02-18T09:55:17;101011.19;;;10.09;100.00
39265;BME280;42646;51.910;7.724;2023-02-18T09:57:48;100999.19;;;10.14;100.00
39265;BME280;42646;51.910;7.724;2023-02-18T10:00:20;101003.94;;;10.00;100.00
39265;BME280;42646;51.910;7.724;2023-02-18T10:02:54;101010.09;;;10.00;100.00
39265;BME280;42646;51.910;7.724;2023-02-18T10:05:22;101012.28;;;9.95;100.00
39265;BME280;42646;51.910;7.724;2023-02-18T10:07:53;101011.09;;;9.99;100.00
39265;BME280;42646;51.910;7.724;2023-02-18T10:10:33;101011.09;;;9.99;100.00
39265;BME280;42646;51.910;7.724;2023-02-18T10:13:11;101009.44;;;9.87;100.00
39265;BME280;42646;51.910;7.724;2023-02-18T10:16:05;101008.44;;;9.88;100.00
39265;BME280;42646;51.910;7.724;2023-02-18T10:18:39;101021.75;;;9.88;100.00
39265;BME280;42646;51.910;7.724;2023-02-18T10:21:10;101018.84;;;9.91;100.00
39265;BME280;42646;51.910;7.724;2023-02-18T10:23:46;101022.91;;;9.95;100.00
39265;BME280;42646;51.910;7.724;2023-02-18T10:26:20;101024.16;;;9.91;100.00
39265;BME280;42646;51.910;7.724;2023-02-18T10:28:49;101023.91;;;9.83;100.00
39265;BME280;42646;51.910;7.724;2023-02-18T10:31:22;101023.72;;;9.75;100.00
39265;BME280;42646;51.910;7.724;2023-02-18T10:33:58;101031.91;;;9.72;100.00
39265;BME280;42646;51.910;7.724;2023-02-18T10:36:33;101036.28;;;9.73;100.00
39265;BME280;42646;51.910;7.724;2023-02-18T10:39:16;101038.81;;;9.74;100.00
39265;BME280;42646;51.910;7.724;2023-02-18T10:41:55;101036.72;;;9.78;100.00
39265;BME280;42646;51.910;7.724;2023-02-18T10:44:36;101035.03;;;9.77;100.00
39265;BME280;42646;51.910;7.724;2023-02-18T10:47:18;101030.81;;;9.85;100.00
39265;BME280;42646;51.910;7.724;2023-02-18T10:49:58;101038.28;;;9.92;100.00
39265;BME280;42646;51.910;7.724;2023-02-18T10:52:30;101032.50;;;9.86;100.00
39265;BME280;42646;51.910;7.724;2023-02-18T10:55:02;101033.97;;;9.79;100.00
39265;BME280;42646;51.910;7.724;2023-02-18T10:57:32;101029.72;;;9.88;100.00
39265;BME280;42646;51.910;7.724;2023-02-18T11:00:15;101032.63;;;9.85;100.00
39265;BME280;42646;51.910;7.724;2023-02-18T11:02:43;101031.81;;;9.73;100.00
39265;BME280;42646;51.910;7.724;2023-02-18T11:05:19;101033.84;;;9.70;100.00
39265;BME280;42646;51.910;7.724;2023-02-18T11:07:51;101036.16;;;9.74;100.00
39265;BME280;42646;51.910;7.724;2023-02-18T11:10:24;101033.97;;;9.79;100.00
39265;BME280;42646;51.910;7.724;2023-02-18T11:12:56;101036.63;;;9.79;100.00
39265;BME280;42646;51.910;7.724;2023-02-18T11:15:29;101040.97;;;9.80;100.00
39265;BME280;42646;51.910;7.724;2023-02-18T11:18:11;101041.53;;;9.84;100.00
39265;BME280;42646;51.910;7.724;2023-02-18T11:20:40;101038.94;;;9.73;100.00
39265;BME280;42646;51.910;7.724;2023-02-18T11:23:17;101034.56;;;9.83;100.00
39265;BME280;42646;51.910;7.724;2023-02-18T11:25:54;101045.78;;;9.86;100.00
39265;BME280;42646;51.910;7.724;2023-02-18T11:28:30;101033.84;;;9.81;100.00
39265;BME280;42646;51.910;7.724;2023-02-18T11:31:02;101036.84;;;9.87;100.00
39265;BME280;42646;51.910;7.724;2023-02-18T11:33:33;101044.47;;;9.81;100.00
39265;BME280;42646;51.910;7.724;2023-02-18T11:36:11;101037.81;;;9.86;100.00
39265;BME280;42646;51.910;7.724;2023-02-18T11:38:53;101040.81;;;9.93;100.00
39265;BME280;42646;51.910;7.724;2023-02-18T11:41:30;101046.88;;;9.84;100.00
39265;BME280;42646;51.910;7.724;2023-02-18T11:44:00;101042.03;;;9.78;100.00
39265;BME280;42646;51.910;7.724;2023-02-18T11:46:30;101033.13;;;9.79;100.00
39265;BME280;42646;51.910;7.724;2023-02-18T11:49:11;101038.66;;;9.87;100.00
39265;BME280;42646;51.910;7.724;2023-02-18T11:51:48;101048.69;;;9.83;100.00
39265;BME280;42646;51.910;7.724;2023-02-18T11:54:24;101045.78;;;9.98;100.00
39265;BME280;42646;51.910;7.724;2023-02-18T11:56:57;101039.75;;;9.84;100.00
39265;BME280;42646;51.910;7.724;2023-02-18T11:59:25;101050.63;;;9.81;100.00
39265;BME280;42646;51.910;7.724;2023-02-18T12:02:01;101050.75;;;9.80;100.00
39265;BME280;42646;51.910;7.724;2023-02-18T12:04:37;101054.50;;;9.77;100.00
39265;BME280;42646;51.910;7.724;2023-02-18T12:07:16;101039.03;;;9.71;100.00
39265;BME280;42646;51.910;7.724;2023-02-18T12:09:48;101045.59;;;9.67;100.00
39265;BME280;42646;51.910;7.724;2023-02-18T12:12:23;101041.69;;;9.71;100.00
39265;BME280;42646;51.910;7.724;2023-02-18T12:14:58;101040.38;;;9.77;100.00
39265;BME280;42646;51.910;7.724;2023-02-18T12:17:46;101043.50;;;9.82;100.00
39265;BME280;42646;51.910;7.724;2023-02-18T12:20:43;101043.28;;;9.74;100.00
39265;BME280;42646;51.910;7.724;2023-02-18T12:23:18;101035.53;;;9.71;100.00
39265;BME280;42646;51.910;7.724;2023-02-18T12:25:55;101037.69;;;9.77;100.00
39265;BME280;42646;51.910;7.724;2023-02-18T12:28:38;101039.03;;;9.71;100.00
39265;BME280;42646;51.910;7.724;2023-02-18T12:31:20;101040.00;;;9.81;100.00
39265;BME280;42646;51.910;7.724;2023-02-18T12:34:04;101028.53;;;9.81;100.00
39265;BME280;42646;51.910;7.724;2023-02-18T12:36:44;101033.50;;;9.74;100.00
39265;BME280;42646;51.910;7.724;2023-02-18T12:39:25;101040.00;;;9.81;100.00
39265;BME280;42646;51.910;7.724;2023-02-18T12:42:16;101046.78;;;9.74;100.00
39265;BME280;42646;51.910;7.724;2023-02-18T12:45:02;101040.38;;;9.77;100.00
39265;BME280;42646;51.910;7.724;2023-02-18T12:47:42;101045.31;;;9.70;100.00
39265;BME280;42646;51.910;7.724;2023-02-18T12:50:40;101046.53;;;9.77;100.00
39265;BME280;42646;51.910;7.724;2023-02-18T12:53:38;101046.03;;;9.72;100.00
39265;BME280;42646;51.910;7.724;2023-02-18T12:56:44;101043.63;;;9.80;100.00
39265;BME280;42646;51.910;7.724;2023-02-18T12:59:29;101050.50;;;9.83;100.00
39265;BME280;42646;51.910;7.724;2023-02-18T13:02:13;101060.91;;;9.75;100.00
39265;BME280;42646;51.910;7.724;2023-02-18T13:04:53;101052.69;;;9.78;100.00
39265;BME280;42646;51.910;7.724;2023-02-18T13:07:38;101048.59;;;9.74;100.00
39265;BME280;42646;51.910;7.724;2023-02-18T13:10:26;101067.69;;;9.79;100.00
39265;BME280;42646;51.910;7.724;2023-02-18T13:13:25;101050.75;;;9.80;100.00
39265;BME280;42646;51.910;7.724;2023-02-18T13:15:58;101036.63;;;9.79;100.00
39265;BME280;42646;51.910;7.724;2023-02-18T13:18:30;101039.03;;;9.82;100.00
39265;BME280;42646;51.910;7.724;2023-02-18T13:21:24;101038.53;;;9.77;100.00